Time;durP1;ratioP1;P1;durP2;ratioP2;P2;SDS_P1;SDS_P2;PMS_P1;PMS_P2;Temp;Humidity;BMP_temperature;BMP_pressure;BME280_temperature;BME280_humidity;BME280_pressure;Samples;Min_cycle;Max_cycle;Signal;HPM_P1;HPM_P2
2022/06/30 00:01:30;;;;;;;7.25;3.50;;;;;;;23.25;100.00;99245.63;6244402;22;20046;-77
2022/06/30 00:03:56;;;;;;;6.50;3.38;;;;;;;23.20;100.00;99248.19;6245286;22;20023;-77
2022/06/30 00:06:22;;;;;;;5.85;3.38;;;;;;;23.13;100.00;99242.09;6271728;22;20035;-76
2022/06/30 00:08:47;;;;;;;8.73;3.50;;;;;;;23.12;100.00;99253.06;6245202;22;20008;-76
2022/06/30 00:11:13;;;;;;;5.80;2.78;;;;;;;23.08;100.00;99244.66;6272195;22;20007;-77
2022/06/30 00:13:41;;;;;;;6.75;3.25;;;;;;;23.08;100.00;99243.84;6271643;22;20512;-77
2022/06/30 00:16:07;;;;;;;6.93;3.60;;;;;;;23.05;100.00;99250.50;6271838;22;19999;-76
2022/06/30 00:18:33;;;;;;;6.63;3.13;;;;;;;23.03;100.00;99249.88;6271635;22;20014;-77
2022/06/30 00:20:59;;;;;;;4.82;3.30;;;;;;;22.98;100.00;99249.75;6272210;22;20004;-76
2022/06/30 00:23:25;;;;;;;6.43;3.13;;;;;;;22.92;100.00;99250.69;6271351;22;20099;-77
2022/06/30 00:25:50;;;;;;;6.72;3.45;;;;;;;22.87;100.00;99258.63;6272284;22;20046;-77
2022/06/30 00:28:18;;;;;;;7.45;3.42;;;;;;;22.83;100.00;99262.84;6271636;22;20054;-76
2022/06/30 00:30:48;;;;;;;6.13;3.08;;;;;;;22.79;100.00;99264.34;6244404;22;20212;-76
2022/06/30 00:33:14;;;;;;;5.03;3.53;;;;;;;22.78;100.00;99260.00;6271445;22;20007;-78
2022/06/30 00:35:40;;;;;;;5.35;3.35;;;;;;;22.77;100.00;99261.06;6271681;22;20054;-77
2022/06/30 00:38:06;;;;;;;7.30;3.38;;;;;;;22.80;100.00;99263.28;6244957;22;20463;-76
2022/06/30 00:40:43;;;;;;;7.18;3.83;;;;;;;22.75;100.00;99261.28;6271226;22;20019;-77
2022/06/30 00:43:10;;;;;;;8.48;3.35;;;;;;;22.71;100.00;99256.56;6271328;22;20420;-77
2022/06/30 00:45:43;;;;;;;5.25;3.13;;;;;;;22.64;100.00;99253.94;6271469;22;20433;-77
2022/06/30 00:48:10;;;;;;;5.18;2.83;;;;;;;22.56;100.00;99256.16;6271567;22;20042;-78
2022/06/30 00:50:36;;;;;;;4.03;3.67;;;;;;;22.51;100.00;99253.31;6271668;22;20011;-77
2022/06/30 00:53:03;;;;;;;8.23;3.55;;;;;;;22.48;100.00;99259.16;6271933;22;20364;-76
2022/06/30 00:55:31;;;;;;;6.72;3.92;;;;;;;22.43;100.00;99260.66;6271403;22;20425;-77
2022/06/30 00:58:00;;;;;;;5.22;3.17;;;;;;;22.39;100.00;99251.38;6271840;22;20483;-77
2022/06/30 01:00:29;;;;;;;7.50;3.63;;;;;;;22.36;100.00;99254.53;6271860;22;20039;-77
2022/06/30 01:02:55;;;;;;;6.90;3.75;;;;;;;22.35;100.00;99260.94;6270766;22;20448;-77
2022/06/30 01:05:21;;;;;;;9.27;3.67;;;;;;;22.35;100.00;99260.13;6243915;22;20433;-78
2022/06/30 01:07:48;;;;;;;6.95;3.67;;;;;;;22.36;100.00;99251.84;6271636;22;20011;-77
2022/06/30 01:12:57;;;;;;;4.97;3.78;;;;;;;22.20;100.00;99265.91;6271404;22;20510;-76
2022/06/30 01:15:23;;;;;;;7.82;4.53;;;;;;;22.05;100.00;99260.88;6243578;22;20011;-78
2022/06/30 01:17:50;;;;;;;7.70;4.28;;;;;;;21.89;100.00;99257.94;6271232;22;20073;-76
2022/06/30 01:20:18;;;;;;;7.22;4.10;;;;;;;21.82;100.00;99257.19;6271045;22;20004;-76
2022/06/30 01:22:44;;;;;;;9.15;4.30;;;;;;;21.79;100.00;99261.16;6243743;22;20061;-75
2022/06/30 01:25:11;;;;;;;4.60;3.70;;;;;;;21.79;100.00;99257.66;6244234;22;20484;-78
2022/06/30 01:27:37;;;;;;;8.32;4.07;;;;;;;21.80;100.00;99260.09;6271311;22;20012;-78
2022/06/30 01:30:03;;;;;;;7.70;4.40;;;;;;;21.79;100.00;99266.53;6270874;22;20015;-77
2022/06/30 01:32:29;;;;;;;6.75;4.35;;;;;;;21.79;100.00;99263.84;6271222;22;20332;-77
2022/06/30 01:34:58;;;;;;;6.50;4.40;;;;;;;21.77;100.00;99273.16;6270900;22;20003;-77
2022/06/30 01:37:25;;;;;;;6.70;3.97;;;;;;;21.72;100.00;99268.44;6270959;22;20014;-76
2022/06/30 01:39:51;;;;;;;6.80;4.03;;;;;;;21.67;100.00;99260.25;6271444;22;20332;-77
2022/06/30 01:42:17;;;;;;;6.55;4.20;;;;;;;21.66;100.00;99258.59;6271086;22;20004;-77
2022/06/30 01:44:43;;;;;;;5.88;4.13;;;;;;;21.65;100.00;99260.47;6271209;22;20053;-76
2022/06/30 01:47:09;;;;;;;5.90;3.67;;;;;;;21.67;100.00;99262.09;6271496;22;20035;-77
2022/06/30 01:49:36;;;;;;;5.13;3.92;;;;;;;21.65;100.00;99265.81;6270931;22;20381;-77
2022/06/30 01:52:02;;;;;;;7.07;3.90;;;;;;;21.64;100.00;99264.19;6272962;22;20463;-77
2022/06/30 01:54:28;;;;;;;6.40;4.18;;;;;;;21.61;100.00;99261.94;6272812;22;20142;-77
2022/06/30 01:56:53;;;;;;;7.03;3.83;;;;;;;21.61;100.00;99253.91;6273251;22;20035;-76
2022/06/30 01:59:19;;;;;;;8.45;4.00;;;;;;;21.60;100.00;99257.63;6273111;22;20030;-76
2022/06/30 02:01:45;;;;;;;6.38;3.70;;;;;;;21.61;100.00;99264.63;6273043;22;20011;-77
2022/06/30 02:06:55;;;;;;;5.97;3.53;;;;;;;21.56;100.00;99261.75;6272638;22;20015;-77
2022/06/30 02:09:20;;;;;;;3.78;3.42;;;;;;;21.53;100.00;99264.06;6272393;22;20012;-77
2022/06/30 02:11:46;;;;;;;7.57;4.38;;;;;;;21.47;100.00;99263.09;6271481;22;20032;-74
2022/06/30 02:21:10;;;;;;;8.95;4.07;;;;;;;21.41;100.00;99269.34;6270652;22;20791;-75
2022/06/30 02:23:36;;;;;;;7.28;4.25;;;;;;;21.43;100.00;99264.59;6272248;22;20008;-76
2022/06/30 02:26:01;;;;;;;5.68;4.50;;;;;;;21.41;100.00;99266.66;6272359;22;20015;-74
2022/06/30 02:28:27;;;;;;;10.38;3.60;;;;;;;21.39;100.00;99265.22;6271961;22;20014;-76
2022/06/30 02:30:53;;;;;;;5.10;3.95;;;;;;;21.32;100.00;99267.16;6244211;22;20038;-77
2022/06/30 02:33:18;;;;;;;8.23;3.92;;;;;;;21.29;100.00;99267.59;6272502;22;20023;-76
2022/06/30 02:35:44;;;;;;;7.78;4.57;;;;;;;21.25;100.00;99264.53;6272266;22;20076;-76
2022/06/30 02:38:10;;;;;;;6.35;4.10;;;;;;;21.24;100.00;99273.63;6272239;22;20012;-77
2022/06/30 02:40:36;;;;;;;8.55;5.03;;;;;;;21.24;100.00;99284.34;6272223;22;20392;-75
2022/06/30 02:43:01;;;;;;;7.40;4.25;;;;;;;21.23;100.00;99278.16;6272421;22;20034;-77
2022/06/30 02:45:27;;;;;;;11.80;4.97;;;;;;;21.19;100.00;99276.13;6245173;22;20018;-77
2022/06/30 02:47:55;;;;;;;10.48;4.72;;;;;;;21.15;100.00;99278.41;6272399;22;20007;-76
2022/06/30 02:50:21;;;;;;;8.18;4.10;;;;;;;21.12;100.00;99278.00;6245200;22;20081;-77
2022/06/30 02:52:46;;;;;;;8.18;4.40;;;;;;;21.10;100.00;99277.38;6272224;22;20007;-77
2022/06/30 02:55:12;;;;;;;5.75;4.00;;;;;;;21.07;100.00;99277.84;6245247;22;20011;-77
2022/06/30 02:57:38;;;;;;;6.80;5.15;;;;;;;21.04;100.00;99278.25;6219712;22;20095;-77
2022/06/30 03:00:09;;;;;;;8.90;4.70;;;;;;;21.03;100.00;99282.78;6272503;22;20008;-76
2022/06/30 03:02:35;;;;;;;6.60;4.50;;;;;;;21.02;100.00;99281.19;6271979;22;20559;-77
2022/06/30 03:05:01;;;;;;;8.20;4.97;;;;;;;21.02;100.00;99275.00;6272546;22;20000;-76
2022/06/30 03:07:26;;;;;;;7.38;4.63;;;;;;;21.03;100.00;99265.91;6271647;22;20003;-77
2022/06/30 03:09:52;;;;;;;8.68;5.03;;;;;;;21.03;100.00;99271.28;6271527;22;20016;-76
2022/06/30 03:12:17;;;;;;;8.73;5.28;;;;;;;21.03;100.00;99271.28;6244127;22;20088;-75
2022/06/30 03:14:43;;;;;;;7.80;5.38;;;;;;;21.03;100.00;99282.00;6271797;22;20008;-77
2022/06/30 03:17:09;;;;;;;6.13;4.50;;;;;;;21.05;100.00;99290.63;6271413;22;20031;-77
2022/06/30 03:19:34;;;;;;;7.20;4.95;;;;;;;21.06;100.00;99286.91;6271847;22;20205;-77
2022/06/30 03:22:00;;;;;;;7.53;5.15;;;;;;;21.06;100.00;99284.25;6271540;22;20062;-77
2022/06/30 03:24:25;;;;;;;8.43;4.53;;;;;;;20.96;100.00;99291.94;6271200;22;20031;-76
2022/06/30 03:26:51;;;;;;;8.13;5.07;;;;;;;20.89;100.00;99291.16;6271886;22;20014;-76
2022/06/30 03:29:16;;;;;;;11.02;5.50;;;;;;;20.84;100.00;99287.28;6271588;22;19999;-77
2022/06/30 03:31:42;;;;;;;8.35;5.13;;;;;;;20.83;100.00;99282.94;6271756;22;20365;-76
2022/06/30 03:34:08;;;;;;;7.05;4.82;;;;;;;20.82;100.00;99286.66;6272317;22;20063;-77
2022/06/30 03:36:34;;;;;;;8.30;5.07;;;;;;;20.80;100.00;99290.56;6272594;22;20057;-77
2022/06/30 03:38:59;;;;;;;10.98;5.30;;;;;;;20.79;100.00;99288.97;6272559;22;20455;-75
2022/06/30 03:41:25;;;;;;;7.45;4.53;;;;;;;20.77;100.00;99283.81;6271999;22;20011;-76
2022/06/30 03:43:51;;;;;;;7.47;4.65;;;;;;;20.72;100.00;99286.31;6272832;22;20008;-77
2022/06/30 03:46:17;;;;;;;8.13;5.15;;;;;;;20.72;100.00;99291.66;6245119;22;20008;-76
2022/06/30 03:48:42;;;;;;;6.60;5.40;;;;;;;20.73;100.00;99277.22;6272430;22;20090;-76
2022/06/30 03:51:09;;;;;;;7.60;4.70;;;;;;;20.74;100.00;99281.53;6272636;22;20061;-76
2022/06/30 03:53:35;;;;;;;9.68;4.78;;;;;;;20.74;100.00;99284.22;6272607;22;20846;-77
2022/06/30 03:56:00;;;;;;;8.57;5.05;;;;;;;20.73;100.00;99282.59;6272439;22;20082;-76
2022/06/30 03:58:26;;;;;;;7.93;5.00;;;;;;;20.72;100.00;99291.66;6272168;22;20011;-76
2022/06/30 04:00:51;;;;;;;10.95;4.90;;;;;;;20.73;100.00;99296.00;6272446;22;20004;-76
2022/06/30 04:03:17;;;;;;;5.55;5.05;;;;;;;20.74;100.00;99297.63;6272277;22;20039;-76
2022/06/30 04:05:43;;;;;;;6.32;5.35;;;;;;;20.75;100.00;99307.31;6245470;22;20409;-76
2022/06/30 04:08:08;;;;;;;5.63;4.90;;;;;;;20.77;100.00;99305.25;6245401;22;20004;-77
2022/06/30 04:10:34;;;;;;;7.93;4.97;;;;;;;20.77;100.00;99304.44;6272045;22;20022;-77
2022/06/30 04:13:00;;;;;;;8.25;5.07;;;;;;;20.77;100.00;99310.63;6272021;22;19999;-76
2022/06/30 04:15:27;;;;;;;7.10;4.80;;;;;;;20.79;100.00;99303.16;6272130;22;20007;-75
2022/06/30 04:17:53;;;;;;;6.50;4.68;;;;;;;20.82;100.00;99310.78;6272230;22;20027;-75
2022/06/30 04:20:19;;;;;;;6.68;4.53;;;;;;;20.85;100.00;99323.75;6272310;22;20058;-77
2022/06/30 04:22:50;;;;;;;7.13;4.78;;;;;;;20.89;100.00;99326.03;6244978;22;20070;-76
2022/06/30 04:25:17;;;;;;;8.73;5.47;;;;;;;20.91;100.00;99330.13;6272154;22;20039;-76
2022/06/30 04:27:48;;;;;;;8.80;4.70;;;;;;;20.96;100.00;99332.19;6272157;22;20057;-76
2022/06/30 04:30:15;;;;;;;8.63;4.75;;;;;;;20.99;100.00;99329.06;6245200;22;20055;-76
2022/06/30 04:32:41;;;;;;;9.10;4.70;;;;;;;21.03;100.00;99322.25;6271783;22;20065;-76
2022/06/30 04:35:12;;;;;;;6.68;4.45;;;;;;;21.07;100.00;99321.59;6272431;22;20008;-76
2022/06/30 04:37:40;;;;;;;;;;;;;;;21.12;100.00;99332.50;6245245;22;20432;-76
2022/06/30 04:42:51;;;;;;;7.47;4.97;;;;;;;21.26;100.00;99319.84;6271994;22;20334;-76
2022/06/30 04:45:17;;;;;;;6.60;4.70;;;;;;;21.34;100.00;99324.94;6272331;22;20012;-77
2022/06/30 04:47:43;;;;;;;5.88;4.55;;;;;;;21.42;100.00;99318.47;6219556;22;19999;-77
2022/06/30 04:50:09;;;;;;;6.93;4.35;;;;;;;21.49;100.00;99320.09;6272178;22;20327;-76
2022/06/30 04:52:36;;;;;;;9.73;4.68;;;;;;;21.54;100.00;99314.06;6244833;22;20024;-76
2022/06/30 04:55:02;;;;;;;6.63;5.15;;;;;;;21.57;100.00;99311.75;6272220;22;20004;-77
2022/06/30 04:57:27;;;;;;;8.05;4.60;;;;;;;21.63;100.00;99304.66;6244599;22;20341;-77
2022/06/30 04:59:53;;;;;;;9.73;4.57;;;;;;;21.67;100.00;99313.13;6272143;22;20004;-77
2022/06/30 05:02:18;;;;;;;6.18;4.50;;;;;;;21.69;100.00;99309.16;6271173;22;20011;-77
2022/06/30 05:04:44;;;;;;;5.57;4.13;;;;;;;21.75;100.00;99318.19;6272588;22;20082;-77
2022/06/30 05:07:11;;;;;;;8.93;4.70;;;;;;;21.78;100.00;99307.03;6272100;22;20003;-75
2022/06/30 05:09:36;;;;;;;4.50;3.83;;;;;;;21.81;100.00;99309.25;6244809;22;20012;-76
2022/06/30 05:12:03;;;;;;;8.23;4.80;;;;;;;21.85;100.00;99313.16;6271779;22;20096;-77
2022/06/30 05:14:28;;;;;;;7.93;4.30;;;;;;;21.90;100.00;99316.00;6271305;22;20008;-76
2022/06/30 05:16:54;;;;;;;5.38;4.45;;;;;;;21.94;100.00;99311.81;6271487;22;20049;-76
2022/06/30 05:19:19;;;;;;;6.07;4.15;;;;;;;21.97;100.00;99306.06;6271162;22;20037;-77
2022/06/30 05:21:45;;;;;;;12.65;4.30;;;;;;;22.00;100.00;99316.34;6271255;22;20012;-76
2022/06/30 05:26:54;;;;;;;7.03;4.43;;;;;;;22.05;100.00;99325.38;6273502;22;20004;-75
2022/06/30 05:29:20;;;;;;;8.30;4.28;;;;;;;22.08;100.00;99329.50;6272751;22;20010;-76
2022/06/30 05:31:45;;;;;;;12.57;4.88;;;;;;;22.12;100.00;99328.00;6272799;22;20035;-75
2022/06/30 05:34:11;;;;;;;10.70;4.40;;;;;;;22.10;100.00;99327.38;6246046;22;20008;-76
2022/06/30 05:36:37;;;;;;;5.70;4.47;;;;;;;21.99;100.00;99328.13;6272688;22;20016;-77
2022/06/30 05:39:02;;;;;;;7.85;5.07;;;;;;;21.98;100.00;99329.16;6273253;22;20278;-77
2022/06/30 05:41:28;;;;;;;8.70;5.03;;;;;;;22.01;100.00;99329.56;6272895;22;20003;-77
2022/06/30 05:43:53;;;;;;;6.65;4.00;;;;;;;22.08;100.00;99334.88;6273458;22;20012;-77
2022/06/30 05:46:19;;;;;;;5.88;4.78;;;;;;;22.02;100.00;99336.59;6272272;22;20016;-77
2022/06/30 05:48:45;;;;;;;6.57;4.55;;;;;;;22.05;100.00;99343.38;6272923;22;20054;-77
2022/06/30 05:51:10;;;;;;;8.35;4.60;;;;;;;22.11;100.00;99347.84;6272974;22;20034;-77
2022/06/30 05:53:36;;;;;;;6.15;4.32;;;;;;;22.13;100.00;99345.78;6245854;22;20023;-76
2022/06/30 05:56:02;;;;;;;5.90;4.50;;;;;;;22.12;100.00;99349.50;6273195;22;20011;-77
2022/06/30 05:58:27;;;;;;;8.73;5.05;;;;;;;22.11;100.00;99350.53;6272895;22;20012;-77
2022/06/30 06:00:53;;;;;;;8.90;5.38;;;;;;;22.19;100.00;99354.81;6272890;22;20008;-77
2022/06/30 06:03:19;;;;;;;8.60;5.15;;;;;;;22.22;100.00;99347.13;6272085;22;20019;-77
2022/06/30 06:05:44;;;;;;;5.65;4.57;;;;;;;22.23;100.00;99346.06;6272722;22;20010;-76
2022/06/30 06:08:12;;;;;;;9.00;5.00;;;;;;;22.27;100.00;99349.94;6272907;22;20381;-77
2022/06/30 06:10:38;;;;;;;6.60;4.60;;;;;;;22.25;100.00;99335.94;6271906;22;20099;-77
2022/06/30 06:13:05;;;;;;;11.50;4.85;;;;;;;22.32;100.00;99336.69;6272832;22;20043;-76
2022/06/30 06:15:31;;;;;;;6.18;4.30;;;;;;;22.31;100.00;99337.72;6272599;22;20012;-76
2022/06/30 06:17:56;;;;;;;6.97;4.53;;;;;;;22.37;100.00;99349.44;6272580;22;20315;-77
2022/06/30 06:20:22;;;;;;;7.70;4.75;;;;;;;22.40;100.00;99349.81;6272251;22;20391;-77
2022/06/30 06:22:48;;;;;;;6.18;4.43;;;;;;;22.47;100.00;99347.06;6272492;22;20012;-77
2022/06/30 06:25:15;;;;;;;7.38;4.75;;;;;;;22.51;100.00;99345.53;6272708;22;20035;-78
2022/06/30 06:27:41;;;;;;;6.97;4.60;;;;;;;22.50;100.00;99343.94;6272688;22;20098;-76
2022/06/30 06:30:09;;;;;;;6.60;4.28;;;;;;;22.46;100.00;99343.53;6272590;22;20004;-77
2022/06/30 06:32:35;;;;;;;7.70;3.83;;;;;;;22.51;100.00;99360.84;6271175;22;20015;-76
2022/06/30 06:35:01;;;;;;;8.02;5.63;;;;;;;22.55;100.00;99356.69;6245584;22;20010;-76
2022/06/30 06:37:27;;;;;;;5.72;4.25;;;;;;;22.65;100.00;99362.34;6272261;22;20433;-76
2022/06/30 06:39:52;;;;;;;6.68;4.07;;;;;;;22.72;100.00;99360.44;6272879;22;20047;-76
2022/06/30 06:42:18;;;;;;;6.22;4.18;;;;;;;22.68;100.00;99360.03;6272264;22;20333;-76
2022/06/30 06:44:47;;;;;;;7.35;3.80;;;;;;;22.71;100.00;99356.06;6272669;22;20016;-76
2022/06/30 06:47:15;;;;;;;7.65;4.05;;;;;;;22.77;100.00;99357.91;6272257;22;20004;-75
2022/06/30 06:49:42;;;;;;;6.43;4.15;;;;;;;22.91;100.00;99363.94;6272026;22;20518;-76
2022/06/30 06:52:07;;;;;;;7.57;3.80;;;;;;;23.01;100.00;99359.66;6272236;22;20511;-76
2022/06/30 06:54:33;;;;;;;5.22;4.00;;;;;;;23.10;100.00;99349.38;6272141;22;20008;-76
2022/06/30 06:56:58;;;;;;;6.47;3.70;;;;;;;23.18;100.00;99352.56;6272722;22;20012;-77
2022/06/30 06:59:25;;;;;;;5.80;3.83;;;;;;;23.12;100.00;99356.19;6272276;22;20012;-79
2022/06/30 07:01:51;;;;;;;8.13;4.22;;;;;;;23.13;100.00;99355.13;6272297;22;20012;-78
2022/06/30 07:04:16;;;;;;;4.97;3.55;;;;;;;23.25;100.00;99356.00;6271944;22;20004;-78
2022/06/30 07:06:43;;;;;;;5.43;3.78;;;;;;;23.32;100.00;99352.38;6271923;22;20019;-77
2022/06/30 07:09:09;;;;;;;5.85;3.40;;;;;;;23.38;100.00;99348.78;6272114;22;20036;-76
2022/06/30 07:11:34;;;;;;;6.70;3.55;;;;;;;23.43;100.00;99348.91;6272039;22;20008;-77
2022/06/30 07:14:00;;;;;;;6.22;3.72;;;;;;;23.40;100.00;99350.16;6272469;22;20015;-75
2022/06/30 07:16:26;;;;;;;4.25;3.63;;;;;;;23.48;100.00;99346.38;6272313;22;20011;-77
2022/06/30 07:18:51;;;;;;;5.85;3.20;;;;;;;23.59;100.00;99346.38;6271934;22;20092;-78
2022/06/30 07:21:17;;;;;;;6.72;3.70;;;;;;;23.66;100.00;99344.41;6271568;22;20058;-79
2022/06/30 07:23:43;;;;;;;7.28;3.85;;;;;;;23.76;100.00;99349.22;6272148;22;20054;-77
2022/06/30 07:26:11;;;;;;;9.75;3.40;;;;;;;23.72;100.00;99348.03;6244645;22;20019;-75
2022/06/30 07:28:37;;;;;;;4.38;3.00;;;;;;;23.78;100.00;99344.41;6272011;22;20003;-77
2022/06/30 07:31:03;;;;;;;6.57;3.33;;;;;;;23.82;100.00;99353.66;6271942;22;20446;-76
2022/06/30 07:33:29;;;;;;;4.00;3.30;;;;;;;23.89;100.00;99354.38;6271393;22;20440;-77
2022/06/30 07:35:54;;;;;;;5.30;3.17;;;;;;;23.98;100.00;99354.84;6271823;22;20053;-78
2022/06/30 07:38:20;;;;;;;6.28;3.65;;;;;;;24.06;100.00;99349.94;6271771;22;20046;-78
2022/06/30 07:40:46;;;;;;;5.03;3.80;;;;;;;24.15;100.00;99344.19;6271896;22;20011;-78
2022/06/30 07:43:12;;;;;;;7.43;3.45;;;;;;;24.25;100.00;99341.75;6271998;22;20011;-78
2022/06/30 07:45:37;;;;;;;6.18;3.42;;;;;;;24.34;100.00;99348.41;6271737;22;20083;-77
2022/06/30 07:48:03;;;;;;;5.53;3.08;;;;;;;24.42;100.00;99338.09;6271518;22;20012;-79
2022/06/30 07:50:29;;;;;;;5.88;3.40;;;;;;;24.50;100.00;99338.78;6271229;22;20014;-78
2022/06/30 07:52:55;;;;;;;6.68;3.42;;;;;;;24.59;100.00;99348.94;6271612;22;20097;-77
2022/06/30 07:55:21;;;;;;;5.63;2.97;;;;;;;24.64;100.00;99351.75;6271324;22;20003;-78
2022/06/30 07:57:48;;;;;;;6.45;3.15;;;;;;;24.64;100.00;99343.66;6271749;22;20070;-77
2022/06/30 08:00:15;;;;;;;5.93;3.50;;;;;;;24.61;100.00;99341.44;6271752;22;20341;-75
2022/06/30 08:02:41;;;;;;;8.90;3.47;;;;;;;24.66;100.00;99344.25;6271047;22;20012;-78
2022/06/30 08:05:07;;;;;;;8.98;3.80;;;;;;;24.68;100.00;99342.09;6271578;22;20075;-78
2022/06/30 08:07:34;;;;;;;4.80;2.78;;;;;;;24.75;100.00;99350.88;6271174;22;20000;-78
2022/06/30 08:10:00;;;;;;;4.07;3.33;;;;;;;24.82;100.00;99342.66;6271589;22;20340;-78
2022/06/30 08:12:26;;;;;;;5.05;3.38;;;;;;;24.91;100.00;99353.94;6271433;22;20336;-77
2022/06/30 08:14:52;;;;;;;4.00;3.17;;;;;;;24.95;100.00;99365.88;6271914;22;20003;-77
2022/06/30 08:17:18;;;;;;;6.18;3.40;;;;;;;24.95;100.00;99357.78;6271057;22;20007;-79
2022/06/30 08:19:43;;;;;;;7.03;3.50;;;;;;;24.90;100.00;99369.31;6271740;22;20031;-77
2022/06/30 08:22:09;;;;;;;8.50;3.00;;;;;;;24.91;100.00;99362.03;6270878;22;20015;-77
2022/06/30 08:24:35;;;;;;;5.78;3.15;;;;;;;24.99;100.00;99364.34;6244172;22;20012;-77
2022/06/30 08:27:02;;;;;;;10.82;2.92;;;;;;;25.07;100.00;99350.47;6244629;22;20018;-77
2022/06/30 08:29:34;;;;;;;5.63;3.40;;;;;;;25.11;100.00;99349.72;6271155;22;20417;-77
2022/06/30 08:32:01;;;;;;;10.38;3.55;;;;;;;25.20;100.00;99352.88;6271339;22;20015;-78
2022/06/30 08:34:27;;;;;;;6.88;3.00;;;;;;;25.29;100.00;99349.53;6271479;22;20003;-77
2022/06/30 08:36:52;;;;;;;6.03;2.75;;;;;;;25.23;98.52;99366.69;6271326;22;20093;-78
2022/06/30 08:42:04;;;;;;;6.47;3.47;;;;;;;25.35;98.05;99369.34;6271182;22;20401;-78
2022/06/30 08:44:33;;;;;;;6.38;3.90;;;;;;;25.44;95.82;99370.59;6244144;22;20372;-77
2022/06/30 08:46:59;;;;;;;5.35;2.95;;;;;;;25.41;96.42;99368.38;6244425;22;20403;-77
2022/06/30 08:49:26;;;;;;;5.28;2.85;;;;;;;25.42;97.76;99370.00;6271028;22;20022;-77
2022/06/30 08:51:55;;;;;;;7.78;3.00;;;;;;;25.41;98.60;99362.16;6271182;22;20015;-77
2022/06/30 08:54:22;;;;;;;5.57;2.88;;;;;;;25.37;97.32;99369.94;6270615;22;20066;-76
2022/06/30 08:56:50;;;;;;;4.43;2.55;;;;;;;25.36;97.87;99373.69;6271499;22;20008;-77
2022/06/30 08:59:17;;;;;;;5.25;2.80;;;;;;;25.42;97.36;99363.78;6272194;22;20094;-76
2022/06/30 09:01:43;;;;;;;4.65;2.80;;;;;;;25.52;97.85;99363.97;6273697;22;20426;-78
2022/06/30 09:04:13;;;;;;;7.15;3.45;;;;;;;25.66;96.63;99371.53;6273401;22;20083;-77
2022/06/30 09:06:42;;;;;;;5.93;3.20;;;;;;;25.78;94.27;99362.53;6246698;22;20335;-78
2022/06/30 09:09:09;;;;;;;5.47;2.97;;;;;;;25.83;92.95;99366.13;6272989;22;20097;-77
2022/06/30 09:11:50;;;;;;;8.27;3.00;;;;;;;25.92;93.66;99366.56;6272995;22;20018;-77
2022/06/30 09:14:46;;;;;;;4.95;2.45;;;;;;;26.04;94.51;99361.84;6273247;22;20391;-76
2022/06/30 09:17:18;;;;;;;4.72;2.70;;;;;;;26.09;94.08;99348.44;6241916;22;20387;-77
2022/06/30 09:20:00;;;;;;;5.75;3.08;;;;;;;26.06;91.24;99354.31;6273337;22;20008;-77
2022/06/30 09:22:37;;;;;;;6.55;3.25;;;;;;;26.09;91.38;99353.84;6273053;22;20035;-76
2022/06/30 09:25:07;;;;;;;4.35;3.00;;;;;;;26.13;90.51;99354.97;6273279;22;20038;-78
2022/06/30 09:27:38;;;;;;;7.13;2.97;;;;;;;26.16;90.00;99348.22;6273031;22;20004;-78
2022/06/30 09:30:09;;;;;;;2.92;2.50;;;;;;;26.18;90.32;99349.63;6273381;22;20102;-78
2022/06/30 09:32:43;;;;;;;4.22;2.90;;;;;;;26.24;89.80;99350.53;6272580;22;20012;-77
2022/06/30 09:35:10;;;;;;;4.00;2.92;;;;;;;26.31;90.16;99343.09;6273309;22;20008;-77
2022/06/30 09:37:37;;;;;;;4.82;2.58;;;;;;;26.35;88.95;99347.72;6273024;22;20079;-79
2022/06/30 09:40:04;;;;;;;5.32;2.42;;;;;;;26.42;88.66;99345.66;6273219;22;20012;-76
2022/06/30 09:42:47;;;;;;;3.58;2.35;;;;;;;26.49;87.59;99346.31;6272637;22;20014;-79
2022/06/30 09:45:15;;;;;;;5.68;2.35;;;;;;;26.57;85.44;99349.66;6273327;22;20382;-77
2022/06/30 09:47:55;;;;;;;5.63;2.85;;;;;;;26.60;86.68;99343.72;6272819;22;20054;-77
2022/06/30 09:50:21;;;;;;;8.13;2.85;;;;;;;26.54;87.66;99339.31;6273142;22;20016;-77
2022/06/30 09:53:11;;;;;;;4.63;2.60;;;;;;;26.57;86.66;99328.00;6273617;22;20062;-77
2022/06/30 09:55:43;;;;;;;3.88;2.70;;;;;;;26.60;85.53;99332.91;6273301;22;20336;-78
2022/06/30 09:58:09;;;;;;;7.35;2.90;;;;;;;26.64;84.46;99329.44;6272984;22;20379;-78
2022/06/30 10:00:47;;;;;;;6.50;2.60;;;;;;;26.68;83.51;99338.69;6272785;22;20980;-77
2022/06/30 10:03:13;;;;;;;7.47;2.45;;;;;;;26.72;86.26;99333.59;6272886;22;20012;-77
2022/06/30 10:05:43;;;;;;;5.50;2.80;;;;;;;26.72;85.48;99337.13;6273063;22;20042;-78
2022/06/30 10:08:10;;;;;;;8.73;3.83;;;;;;;26.78;85.91;99341.50;6246315;22;20031;-77
2022/06/30 10:10:36;;;;;;;5.18;2.90;;;;;;;26.82;86.26;99339.09;6245544;22;20020;-77
2022/06/30 10:13:03;;;;;;;5.07;3.08;;;;;;;26.92;84.83;99349.28;6273353;22;20420;-77
2022/06/30 10:15:35;;;;;;;5.15;2.60;;;;;;;26.99;85.72;99342.56;6272763;22;20015;-77
2022/06/30 10:18:02;;;;;;;5.97;3.40;;;;;;;27.01;83.14;99345.88;6272872;22;20008;-76
2022/06/30 10:20:30;;;;;;;7.30;3.97;;;;;;;27.04;83.33;99345.34;6272771;22;20019;-77
2022/06/30 10:22:56;;;;;;;6.07;2.75;;;;;;;27.07;82.95;99344.03;6272920;22;20015;-78
2022/06/30 10:25:22;;;;;;;8.02;2.92;;;;;;;27.07;83.30;99347.56;6272743;22;20066;-77
2022/06/30 10:27:50;;;;;;;4.10;2.30;;;;;;;27.07;82.89;99344.84;6272968;22;20021;-76
2022/06/30 10:30:19;;;;;;;5.85;2.60;;;;;;;27.17;78.90;99344.94;6272629;22;20012;-77
2022/06/30 10:32:51;;;;;;;4.40;2.77;;;;;;;27.21;77.47;99340.66;6271725;22;20049;-78
2022/06/30 10:35:47;;;;;;;4.90;2.40;;;;;;;27.28;78.09;99341.25;6272941;22;20310;-77
2022/06/30 10:38:37;;;;;;;4.03;2.70;;;;;;;27.37;78.02;99338.91;6272821;22;20370;-77
2022/06/30 10:41:11;;;;;;;3.47;2.78;;;;;;;27.41;78.63;99339.19;6272558;22;20016;-75
2022/06/30 10:44:05;;;;;;;6.90;2.60;;;;;;;27.49;78.84;99336.03;6272080;22;20015;-78
2022/06/30 10:47:17;;;;;;;5.90;2.60;;;;;;;27.58;79.54;99334.50;6272434;22;20046;-78
2022/06/30 10:49:55;;;;;;;6.88;2.55;;;;;;;27.69;77.86;99331.59;6269166;22;20022;-78
2022/06/30 10:52:24;;;;;;;6.82;2.53;;;;;;;27.81;78.77;99339.56;6272730;22;20011;-77
2022/06/30 10:54:59;;;;;;;3.33;2.25;;;;;;;27.96;78.25;99336.97;6273072;22;20070;-77
2022/06/30 10:57:25;;;;;;;6.65;2.40;;;;;;;27.97;76.34;99333.19;6272805;22;20008;-77
2022/06/30 10:59:50;;;;;;;4.63;2.25;;;;;;;28.01;76.23;99331.56;6245355;22;20008;-76
2022/06/30 11:02:16;;;;;;;4.72;2.50;;;;;;;28.03;76.36;99332.16;6245723;22;20014;-78
2022/06/30 11:04:47;;;;;;;2.85;1.90;;;;;;;28.11;78.80;99328.09;6272613;22;20018;-77
2022/06/30 11:07:18;;;;;;;4.43;2.40;;;;;;;28.16;79.96;99324.66;6273094;22;20008;-78
2022/06/30 11:09:43;;;;;;;6.28;2.22;;;;;;;28.14;76.90;99332.22;6272757;22;20081;-78
2022/06/30 11:12:17;;;;;;;3.28;2.03;;;;;;;28.22;76.91;99327.09;6272825;22;20000;-78
2022/06/30 11:14:48;;;;;;;4.00;2.50;;;;;;;28.30;75.04;99321.19;6272384;22;20007;-78
2022/06/30 11:17:14;;;;;;;6.30;2.72;;;;;;;28.30;75.25;99314.94;6272280;22;20385;-77
2022/06/30 11:19:40;;;;;;;3.65;2.42;;;;;;;28.21;76.43;99319.25;6272467;22;20344;-77
2022/06/30 11:22:13;;;;;;;6.22;2.70;;;;;;;28.26;77.27;99313.84;6272164;22;20047;-78
2022/06/30 11:24:42;;;;;;;5.60;2.58;;;;;;;28.34;79.75;99299.75;6272777;22;20011;-78
2022/06/30 11:27:17;;;;;;;4.00;2.78;;;;;;;28.34;80.92;99303.28;6273526;22;20004;-78
2022/06/30 11:29:47;;;;;;;6.07;2.58;;;;;;;28.44;79.97;99305.25;6273569;22;20371;-77
2022/06/30 11:32:13;;;;;;;6.80;2.20;;;;;;;28.49;79.23;99306.09;6272663;22;20007;-77
2022/06/30 11:34:40;;;;;;;3.45;2.25;;;;;;;28.54;78.51;99305.28;6272182;22;20019;-78
2022/06/30 11:37:09;;;;;;;3.53;2.20;;;;;;;28.65;77.13;99317.00;6272898;22;20028;-78
2022/06/30 11:39:35;;;;;;;4.05;2.38;;;;;;;28.65;77.14;99312.38;6272538;22;20007;-78
2022/06/30 11:42:11;;;;;;;3.47;2.13;;;;;;;28.68;74.32;99320.00;6272813;22;20046;-77
2022/06/30 11:44:40;;;;;;;3.30;2.95;;;;;;;28.74;74.23;99318.97;6272002;22;20331;-77
2022/06/30 11:47:12;;;;;;;4.63;2.80;;;;;;;28.85;76.31;99311.66;6272661;22;20312;-77
2022/06/30 11:49:53;;;;;;;3.13;2.40;;;;;;;28.85;75.99;99315.19;6271843;22;20666;-78